Česky Dansk Deutsch English Español Suomi Français Magyar Italiano Nederlands norsk Polski Português svenska Türkçe

 

Het Weer

Zadar / Zemunik (Kroatië)

13:00, 23 augustus 2016 (GMT)

NWNNE
WE
SWSSE
Home            
Zadar / Zemunik Bihac Losinj Island Split / Resnik Hvar Livno Rijeka / Omisalj Brac Banja Luka Falconara Zagreb / Pleso Zagreb / Maksimir Portoroz / Secovlje Pescara Portoroz Trieste Mostar Rimini Frontone Gran Sasso Mountain Range Pula Aerodrome Termoli Ronchi Dei Legionari

Om een weerknop op uw website of weblog te plaatsen, copieer onderstaande code en plak die in uw pagina. In het eerste vakje staat HTML-code, in het tweede vakje UBB-code.


Add to Google

Details

Wind speed:3 bf, 8 kn, 4.1 m/s, 9.2 miles/h, 14.8 km/h
Wind direction:N, 350° - E, 100°
Visibility:Greater than 10000 m, 10 km, 32800 ft, 6.2 miles
Clouds:CAVOC
Temperature:29°C, 84°F
Gefühlte Temperatur:28°C, 82°F
Dew-point:11°C, 52°F
Atmospheric pressure:1019 hPa, 764.3 mmHg, 30.09 inHg, 1.006 atm
Relative humidity:32.8 %
METAR:LDZD 231300Z 04008KT 350V100 CAVOK 29/11 Q1019 NOSIG

Snelkoppelingen

Actuele weersinformatie van de hele wereld. Voeg locaties toe met het plus (+) symbool. Deze snelkoppelingen kunnen worden toegevoegd aan Google.

Lid van de Technetium groep

website free tracking
StatCounter NetStat W3C Validator

27-09-2022 01:20:32
astro.technetium.be money.technetium.be phote.technetium.be tafeltennistafel.technetium.be www.ligfiets.net